Terminal Aerodrome Forecast
Issued by NWS

Home | Current Version | Previous Version | Text Only | Print | Product List | Glossary On
Versions: 1 2 3 4 5 6 7 8 9 10 11 12 13 14 15 16 17 18 19 20 21 22 23 24 25 26 27 28 29 30 31 32 33 34 35 36
000
FTUS43 KDMX 140713 AAB
TAFOTM
TAF AMD
KOTM 140713Z 1407/1506 13011KT 6SM -SN BKN060
     FM141200 13014G20KT 1 1/2SM -SN SCT010 BKN025
     FM141600 13012KT 4SM -SN OVC015
     FM142100 13009KT 5SM BR OVC028=

USA.gov is the U.S. government's official web portal to all federal, state and local government web resources and services.